createdAt,value
2023-03-20T00:12:48.419Z,35.51
2023-03-20T00:13:48.484Z,35.50
2023-03-20T00:14:48.542Z,35.49
2023-03-20T00:15:48.655Z,35.52
2023-03-20T00:16:48.664Z,35.52
2023-03-20T00:17:48.715Z,35.52
2023-03-20T00:18:48.773Z,35.52
2023-03-20T00:19:48.873Z,35.52
2023-03-20T00:20:48.887Z,35.51
2023-03-20T00:21:48.963Z,35.50
2023-03-20T00:22:49.014Z,35.52
2023-03-20T00:23:49.072Z,35.52
2023-03-20T00:24:49.126Z,35.52
2023-03-20T00:25:49.194Z,35.53
2023-03-20T00:26:49.267Z,35.52
2023-03-20T00:27:49.327Z,35.51
2023-03-20T00:28:49.388Z,35.52
2023-03-20T00:29:49.450Z,35.53
2023-03-20T00:30:49.518Z,35.52
2023-03-20T00:31:49.639Z,35.52
2023-03-20T00:32:49.741Z,35.53
2023-03-20T00:33:49.700Z,35.53
2023-03-20T00:34:49.752Z,35.54
2023-03-20T00:35:49.845Z,35.54
2023-03-20T00:36:49.865Z,35.53
2023-03-20T00:37:50.139Z,35.54
2023-03-20T00:38:49.988Z,35.54
2023-03-20T00:39:50.062Z,35.55
2023-03-20T00:40:50.634Z,35.53
2023-03-20T00:41:50.186Z,35.52
2023-03-20T00:42:50.221Z,35.57
2023-03-20T00:43:50.279Z,35.55
2023-03-20T00:44:50.348Z,35.56
2023-03-20T00:45:50.413Z,35.55
2023-03-20T00:46:50.540Z,35.56
2023-03-20T00:47:50.599Z,35.59
2023-03-20T00:48:50.577Z,35.54
2023-03-20T00:49:50.657Z,35.57
2023-03-20T00:50:50.705Z,35.56
2023-03-20T00:51:50.837Z,35.56
2023-03-20T00:52:50.844Z,35.59
2023-03-20T00:53:50.900Z,35.59
2023-03-20T00:54:51.654Z,35.59
2023-03-20T00:55:51.026Z,35.60
2023-03-20T00:56:51.141Z,35.59
2023-03-20T00:57:51.133Z,35.57
2023-03-20T00:58:51.660Z,35.58
2023-03-20T00:59:52.134Z,35.59
2023-03-20T01:00:51.352Z,35.60
2023-03-20T01:01:51.408Z,35.60
2023-03-20T01:02:51.429Z,35.57
2023-03-20T01:03:51.493Z,35.60
2023-03-20T01:04:51.550Z,35.61
2023-03-20T01:05:51.654Z,35.61
2023-03-20T01:06:51.675Z,35.59
2023-03-20T01:07:51.743Z,35.60
2023-03-20T01:08:51.806Z,35.60
2023-03-20T01:09:51.869Z,35.59
2023-03-20T01:10:51.941Z,35.62
2023-03-20T01:11:54.058Z,35.61
2023-03-20T01:12:52.050Z,35.63
2023-03-20T01:13:52.114Z,35.62
2023-03-20T01:14:53.131Z,35.64
2023-03-20T01:15:52.251Z,35.62
2023-03-20T01:16:52.381Z,35.61
2023-03-20T01:17:52.377Z,35.64
2023-03-20T01:18:52.439Z,35.61
2023-03-20T01:19:52.556Z,35.62
2023-03-20T01:20:52.564Z,35.62
2023-03-20T01:21:52.632Z,35.61
2023-03-20T01:22:52.692Z,35.61
2023-03-20T01:23:52.756Z,35.63
2023-03-20T01:24:52.812Z,35.61
2023-03-20T01:25:52.873Z,35.63
2023-03-20T01:26:52.936Z,35.62
2023-03-20T01:27:53.627Z,35.62
2023-03-20T01:28:53.062Z,35.63
2023-03-20T01:29:53.131Z,35.61
2023-03-20T01:30:53.186Z,35.62
2023-03-20T01:31:53.402Z,35.64
2023-03-20T01:32:53.358Z,35.65
2023-03-20T01:33:53.372Z,35.65
2023-03-20T01:34:53.454Z,35.65
2023-03-20T01:35:53.506Z,35.65
2023-03-20T01:36:53.644Z,35.63
2023-03-20T01:37:53.630Z,35.64
2023-03-20T01:38:53.695Z,35.63
2023-03-20T01:39:54.649Z,35.64
2023-03-20T01:40:53.819Z,35.64
2023-03-20T01:41:53.889Z,35.64
2023-03-20T01:42:53.985Z,35.65
2023-03-20T01:43:54.024Z,35.62
2023-03-20T01:44:54.076Z,35.65
2023-03-20T01:45:54.190Z,35.65
2023-03-20T01:46:54.207Z,35.66
2023-03-20T01:47:54.268Z,35.66
2023-03-20T01:48:54.351Z,35.62
2023-03-20T01:49:54.466Z,35.66
2023-03-20T01:50:54.456Z,35.65
2023-03-20T01:51:54.509Z,35.64
2023-03-20T01:52:54.570Z,35.65
2023-03-20T01:53:54.696Z,35.66
2023-03-20T01:54:54.693Z,35.67
2023-03-20T01:55:54.790Z,35.65
2023-03-20T01:56:56.636Z,35.65
2023-03-20T01:57:54.894Z,35.66
2023-03-20T01:58:55.146Z,35.64
2023-03-20T01:59:55.028Z,35.64
2023-03-20T02:54:58.427Z,35.70
2023-03-20T02:55:58.496Z,35.66
2023-03-20T02:56:58.566Z,35.66
2023-03-20T02:57:58.647Z,35.68
2023-03-20T02:58:58.684Z,35.69
2023-03-20T02:59:58.757Z,35.67
2023-03-20T03:00:58.822Z,35.69
2023-03-20T03:01:58.883Z,35.68
2023-03-20T03:02:58.972Z,35.70
2023-03-20T03:03:59.074Z,35.67
2023-03-20T03:04:59.072Z,35.68
2023-03-20T03:05:59.147Z,35.69
2023-03-20T03:06:59.212Z,35.67
2023-03-20T03:07:59.262Z,35.69
2023-03-20T03:08:59.330Z,35.67
2023-03-20T03:09:59.385Z,35.68
2023-03-20T03:10:59.452Z,35.67
2023-03-20T03:11:59.585Z,35.66
2023-03-20T03:12:59.621Z,35.69
2023-03-20T03:13:59.634Z,35.70
2023-03-20T03:14:59.696Z,35.68
2023-03-20T03:15:59.796Z,35.68
2023-03-20T03:16:59.923Z,35.69
2023-03-20T03:17:59.892Z,35.67
2023-03-20T03:18:59.996Z,35.68
2023-03-20T03:20:00.006Z,35.68
2023-03-20T03:21:00.113Z,35.69
2023-03-20T03:22:00.140Z,35.70
2023-03-20T03:23:00.199Z,35.66
2023-03-20T03:24:00.257Z,35.71
2023-03-20T03:25:00.383Z,35.69
2023-03-20T03:26:00.409Z,35.71
2023-03-20T03:27:00.434Z,35.68
2023-03-20T03:28:00.494Z,35.69
2023-03-20T03:29:00.555Z,35.70
2023-03-20T03:30:00.619Z,35.66
2023-03-20T03:31:00.698Z,35.69
2023-03-20T03:32:01.135Z,35.70
2023-03-20T03:33:00.860Z,35.69
2023-03-20T03:34:00.849Z,35.70
2023-03-20T03:35:00.916Z,35.68
2023-03-20T03:36:00.988Z,35.70
2023-03-20T03:37:01.017Z,35.68
2023-03-20T03:38:01.088Z,35.61
2023-03-20T03:39:01.163Z,35.67
2023-03-20T03:40:01.199Z,35.68
2023-03-20T03:41:01.260Z,35.70
2023-03-20T03:42:01.323Z,35.70
2023-03-20T03:43:01.374Z,35.68
2023-03-20T03:44:01.466Z,35.68
2023-03-20T03:45:01.503Z,35.71
2023-03-20T03:46:01.592Z,35.71
2023-03-20T03:47:01.651Z,35.71
2023-03-20T03:48:01.683Z,35.69
2023-03-20T03:49:01.730Z,35.71
2023-03-20T03:50:01.801Z,35.70
2023-03-20T03:51:01.861Z,35.67
2023-03-20T03:52:01.916Z,35.71
2023-03-20T03:53:01.992Z,35.67
2023-03-20T03:54:02.043Z,35.71
2023-03-20T03:55:02.165Z,35.71
2023-03-20T03:56:02.277Z,35.71
2023-03-20T03:57:02.223Z,35.70
2023-03-20T03:58:02.281Z,35.71
2023-03-20T03:59:02.339Z,35.70
2023-03-20T04:00:02.395Z,35.70
2023-03-20T04:01:02.588Z,35.69
2023-03-20T04:02:02.548Z,35.69
2023-03-20T04:03:02.590Z,35.70
2023-03-20T04:04:04.792Z,35.69
2023-03-20T04:05:02.754Z,35.70
2023-03-20T04:06:02.778Z,35.71
2023-03-20T04:07:02.845Z,35.70
2023-03-20T04:08:02.904Z,35.69
2023-03-20T04:09:02.957Z,35.70
2023-03-20T04:10:03.005Z,35.68
2023-03-20T04:11:03.065Z,35.66
2023-03-20T04:12:03.137Z,35.68
2023-03-20T04:13:03.204Z,35.66
2023-03-20T04:14:03.247Z,35.68
2023-03-20T04:15:03.677Z,35.72
2023-03-20T04:16:03.370Z,35.68
2023-03-20T04:17:03.422Z,35.65
2023-03-20T04:18:03.475Z,35.65
2023-03-20T04:19:03.542Z,35.68
2023-03-20T04:20:03.607Z,35.69
2023-03-20T04:21:03.664Z,35.69
2023-03-20T04:22:03.735Z,35.68
2023-03-20T04:23:03.796Z,35.73
2023-03-20T04:24:03.857Z,35.67
2023-03-20T04:25:03.921Z,35.64
2023-03-20T04:26:03.980Z,35.66
2023-03-20T04:27:04.040Z,35.68
2023-03-20T04:28:04.104Z,35.71
2023-03-20T04:29:04.180Z,35.73
2023-03-20T04:30:04.226Z,35.69
2023-03-20T04:31:04.290Z,35.69
2023-03-20T04:32:04.361Z,35.68
2023-03-20T04:33:04.456Z,35.66
2023-03-20T04:34:04.488Z,35.63
2023-03-20T04:35:04.551Z,35.70
2023-03-20T04:36:04.703Z,35.68
2023-03-20T04:37:04.733Z,35.67
2023-03-20T04:38:04.729Z,35.69
2023-03-20T04:39:04.794Z,35.71
2023-03-20T04:40:04.858Z,35.64
2023-03-20T04:41:04.924Z,35.69
2023-03-20T04:42:04.990Z,35.66
2023-03-20T04:43:05.055Z,35.64
2023-03-20T04:44:05.192Z,35.65
2023-03-20T04:45:05.175Z,35.67
2023-03-20T04:46:05.254Z,35.67
2023-03-20T04:47:05.305Z,35.68
2023-03-20T05:32:09.118Z,35.65
2023-03-20T05:36:08.467Z,35.65
2023-03-20T05:37:08.490Z,35.70
2023-03-20T05:38:08.539Z,35.67
2023-03-20T05:39:08.605Z,35.65
2023-03-20T05:40:08.664Z,35.70
2023-03-20T05:41:08.721Z,35.69
2023-03-20T05:42:08.784Z,35.73
2023-03-20T05:43:08.855Z,35.73
2023-03-20T05:44:08.905Z,35.71
2023-03-20T05:45:08.963Z,35.64
2023-03-20T05:46:09.151Z,35.70
2023-03-20T05:47:09.084Z,35.76
2023-03-20T05:48:09.138Z,35.76
2023-03-20T05:49:09.194Z,35.74
2023-03-20T05:50:09.242Z,35.73
2023-03-20T05:51:09.301Z,35.76
2023-03-20T05:52:09.343Z,35.79
2023-03-20T05:53:09.406Z,35.81
2023-03-20T05:54:09.462Z,35.81
2023-03-20T05:55:09.546Z,35.81
2023-03-20T06:39:11.773Z,36.43
2023-03-20T11:28:18.871Z,38.18
2023-03-20T11:41:18.455Z,38.03
2023-03-20T11:43:18.392Z,37.99
2023-03-20T11:44:18.482Z,37.94
2023-03-20T11:45:18.418Z,37.97
2023-03-20T11:46:18.466Z,37.97
2023-03-20T11:47:18.456Z,37.94
2023-03-20T11:48:18.483Z,37.90
2023-03-20T11:49:18.495Z,37.88
2023-03-20T11:50:18.515Z,37.89
2023-03-20T11:51:18.540Z,37.84
2023-03-20T11:52:18.554Z,37.87
2023-03-20T11:53:18.581Z,37.86
2023-03-20T11:54:18.595Z,37.82
2023-03-20T11:55:18.615Z,37.82
2023-03-20T11:56:18.683Z,37.82
2023-03-20T11:57:18.658Z,37.75
2023-03-20T11:58:18.674Z,37.79
2023-03-20T11:59:18.744Z,37.80
2023-03-20T12:00:18.710Z,37.98
2023-03-20T12:01:18.728Z,37.98
2023-03-20T12:02:18.800Z,38.00
2023-03-20T12:03:18.804Z,37.97
2023-03-20T12:04:18.784Z,38.10
2023-03-20T12:05:18.813Z,38.25
2023-03-20T12:06:18.832Z,38.17
2023-03-20T12:07:18.841Z,38.10
2023-03-20T12:08:18.878Z,37.95
2023-03-20T12:09:18.875Z,37.99
2023-03-20T12:10:18.892Z,37.98
2023-03-20T12:11:18.917Z,37.91
2023-03-20T12:12:19.585Z,37.96
2023-03-20T12:13:18.942Z,37.92
2023-03-20T12:14:18.971Z,38.08
2023-03-20T12:15:18.975Z,38.18
2023-03-20T12:16:19.053Z,38.16
2023-03-20T12:17:19.996Z,38.19
2023-03-20T12:18:18.994Z,38.18
2023-03-20T12:19:18.972Z,38.24
2023-03-20T12:20:18.980Z,38.25
2023-03-20T12:21:18.967Z,38.22
2023-03-20T12:22:18.956Z,38.27
2023-03-20T12:23:18.959Z,38.20
2023-03-20T12:24:18.946Z,38.12
2023-03-20T12:25:18.946Z,38.12
2023-03-20T12:26:18.938Z,38.14
2023-03-20T12:27:18.929Z,38.14
2023-03-20T12:28:18.924Z,38.12
2023-03-20T12:29:18.921Z,38.04
2023-03-20T12:30:18.911Z,38.03
2023-03-20T12:31:18.981Z,37.98
2023-03-20T12:32:18.896Z,38.02
2023-03-20T12:33:19.001Z,37.97
2023-03-20T12:34:18.979Z,37.98
2023-03-20T12:35:18.898Z,37.97
2023-03-20T12:36:18.901Z,37.94
2023-03-20T12:37:18.889Z,38.02
2023-03-20T12:38:18.882Z,37.96
2023-03-20T12:39:18.898Z,37.97
2023-03-20T12:40:18.897Z,38.10
2023-03-20T12:41:18.871Z,38.14
2023-03-20T12:42:18.926Z,38.14
2023-03-20T12:43:18.880Z,38.01
2023-03-20T12:44:18.911Z,37.92
2023-03-20T12:45:18.915Z,38.11
2023-03-20T12:46:18.985Z,38.04
2023-03-20T12:47:18.946Z,38.17
2023-03-20T12:48:18.972Z,38.44
2023-03-20T12:49:19.010Z,38.60
2023-03-20T12:50:18.999Z,38.59
2023-03-20T12:51:19.090Z,38.60
2023-03-20T12:52:19.077Z,38.48
2023-03-20T12:53:19.072Z,38.44
2023-03-20T12:54:20.079Z,38.45
2023-03-20T12:55:19.100Z,38.51
2023-03-20T12:56:19.114Z,38.48
2023-03-20T12:57:19.136Z,38.63
2023-03-20T12:58:19.155Z,38.73
2023-03-20T12:59:19.151Z,38.74
2023-03-20T13:00:19.167Z,38.81
2023-03-20T13:01:19.310Z,38.85
2023-03-20T13:02:19.189Z,38.88
2023-03-20T13:03:19.223Z,39.03
2023-03-20T13:04:19.211Z,38.95
2023-03-20T13:05:19.235Z,38.93
2023-03-20T13:06:19.259Z,38.94
2023-03-20T13:07:19.277Z,39.40
2023-03-20T13:08:19.284Z,39.40
2023-03-20T13:09:19.318Z,39.46
2023-03-20T13:10:19.344Z,39.55
2023-03-20T13:11:19.425Z,39.62
2023-03-20T13:12:19.369Z,39.61
2023-03-20T13:13:19.437Z,39.55
2023-03-20T13:14:19.408Z,39.48
2023-03-20T13:15:21.592Z,39.34
2023-03-20T13:16:19.483Z,39.28
2023-03-20T13:17:19.448Z,39.33
2023-03-20T13:18:19.474Z,39.27
2023-03-20T13:19:19.489Z,39.23
2023-03-20T13:20:19.508Z,39.21
2023-03-20T13:21:19.536Z,39.24
2023-03-20T13:22:19.567Z,39.24
2023-03-20T13:23:19.569Z,39.36
2023-03-20T13:24:19.606Z,39.32
2023-03-20T13:25:19.607Z,39.32
2023-03-20T13:26:19.639Z,39.33
2023-03-20T13:27:19.649Z,39.38
2023-03-20T13:28:20.588Z,39.39
2023-03-20T13:29:19.673Z,39.34
2023-03-20T13:30:19.695Z,39.42
2023-03-20T13:31:19.813Z,39.35
2023-03-20T13:32:19.813Z,39.36
2023-03-20T13:33:19.809Z,39.36
2023-03-20T13:34:19.777Z,39.35
2023-03-20T13:35:19.812Z,39.31
2023-03-20T13:36:19.809Z,39.35
2023-03-20T13:37:23.918Z,39.36
2023-03-20T13:38:19.833Z,39.32
2023-03-20T13:39:19.823Z,39.39
2023-03-20T13:40:19.823Z,39.44
2023-03-20T13:41:19.828Z,39.33
2023-03-20T13:42:19.828Z,39.36
2023-03-20T13:43:19.848Z,39.64
2023-03-20T13:44:19.905Z,39.31
2023-03-20T13:45:19.826Z,39.38
2023-03-20T13:46:19.933Z,39.24
2023-03-20T13:47:19.874Z,39.31
2023-03-20T13:48:19.832Z,39.20
2023-03-20T13:49:19.817Z,39.17
2023-03-20T13:50:19.821Z,39.08
2023-03-20T13:51:19.828Z,39.05
2023-03-20T13:52:19.825Z,38.96
2023-03-20T13:53:19.832Z,38.92
2023-03-20T13:54:19.802Z,39.00
2023-03-20T13:55:19.804Z,39.01
2023-03-20T13:56:19.800Z,39.10
2023-03-20T13:57:19.843Z,39.11
2023-03-20T13:58:19.781Z,39.14
2023-03-20T13:59:19.785Z,39.06
2023-03-20T14:00:19.800Z,39.11
2023-03-20T14:01:20.084Z,38.98
2023-03-20T14:02:19.789Z,38.89
2023-03-20T14:03:19.766Z,38.77
2023-03-20T14:04:19.857Z,38.78
2023-03-20T14:05:19.760Z,38.75
2023-03-20T14:06:19.742Z,38.78
2023-03-20T14:07:19.751Z,38.74
2023-03-20T14:08:19.740Z,38.75
2023-03-20T14:09:19.730Z,38.73
2023-03-20T14:10:19.711Z,38.68
2023-03-20T14:11:19.720Z,38.69
2023-03-20T14:12:19.719Z,38.67
2023-03-20T14:13:19.736Z,38.69
2023-03-20T14:14:19.709Z,38.69
2023-03-20T14:15:19.714Z,38.68
2023-03-20T14:16:19.724Z,38.71
2023-03-20T14:17:19.703Z,38.68
2023-03-20T14:18:19.693Z,38.70
2023-03-20T14:19:19.736Z,38.67
2023-03-20T14:20:19.713Z,38.62
2023-03-20T14:21:19.684Z,38.63
2023-03-20T14:22:19.670Z,38.63
2023-03-20T14:23:19.656Z,38.58
2023-03-20T14:24:19.743Z,38.61
2023-03-20T14:25:19.642Z,38.61
2023-03-20T14:26:19.670Z,38.59
2023-03-20T14:27:29.821Z,38.57
2023-03-20T14:28:20.716Z,38.56
2023-03-20T14:29:19.676Z,38.57
2023-03-20T14:30:19.667Z,38.52
2023-03-20T14:31:19.665Z,38.53
2023-03-20T14:32:19.664Z,38.47
2023-03-20T14:33:23.008Z,38.51
2023-03-20T14:34:20.572Z,38.50
2023-03-20T14:35:19.647Z,38.48
2023-03-20T14:36:19.639Z,38.49
2023-03-20T14:37:19.635Z,38.49
2023-03-20T14:38:19.633Z,38.47
2023-03-20T14:39:19.625Z,38.47
2023-03-20T14:40:19.695Z,38.43
2023-03-20T14:41:20.574Z,38.43
2023-03-20T14:42:19.616Z,38.42
2023-03-20T14:43:19.607Z,38.38
2023-03-20T14:44:19.599Z,38.41
2023-03-20T14:45:19.599Z,38.43
2023-03-20T14:46:19.602Z,38.42
2023-03-20T14:47:19.605Z,38.38
2023-03-20T14:48:19.583Z,38.32
2023-03-20T14:49:19.576Z,38.32
2023-03-20T14:50:19.580Z,38.31
2023-03-20T14:51:19.565Z,38.30
2023-03-20T14:52:19.612Z,38.28
2023-03-20T14:53:19.577Z,38.38
2023-03-20T14:54:19.566Z,38.66
2023-03-20T14:55:19.555Z,38.76
2023-03-20T14:56:19.555Z,38.69
2023-03-20T14:57:19.566Z,38.88
2023-03-20T14:58:19.544Z,38.90
2023-03-20T14:59:20.071Z,38.92
2023-03-20T15:00:19.544Z,39.03
2023-03-20T15:01:20.017Z,39.16
2023-03-20T15:02:19.525Z,39.08
2023-03-20T15:03:19.542Z,38.95
2023-03-20T15:04:19.521Z,38.95
2023-03-20T15:05:19.515Z,38.83
2023-03-20T15:06:19.512Z,38.78
2023-03-20T15:07:19.502Z,39.09
2023-03-20T15:08:19.509Z,39.11
2023-03-20T15:09:19.505Z,38.65
2023-03-20T15:10:19.891Z,38.50
2023-03-20T15:11:19.499Z,38.44
2023-03-20T15:12:19.480Z,38.41
2023-03-20T15:13:20.075Z,39.34
2023-03-20T15:14:19.479Z,39.02
2023-03-20T15:15:19.477Z,38.88
2023-03-20T15:16:19.475Z,38.60
2023-03-20T15:17:19.465Z,38.64
2023-03-20T15:18:19.451Z,38.61
2023-03-20T15:19:19.445Z,38.65
2023-03-20T15:20:20.070Z,38.41
2023-03-20T15:25:56.204Z,38.90
2023-03-20T15:29:56.188Z,38.20
2023-03-20T15:33:56.154Z,38.48
2023-03-20T15:37:56.115Z,38.55
2023-03-20T15:41:56.067Z,38.38
2023-03-20T15:46:14.208Z,36.92
2023-03-20T15:49:56.990Z,36.19
2023-03-20T15:53:55.975Z,37.40
2023-03-20T15:57:55.964Z,36.41
2023-03-20T16:01:55.981Z,36.57
2023-03-20T16:05:56.351Z,36.02
2023-03-20T16:09:55.921Z,36.12
2023-03-20T16:13:55.833Z,37.40
2023-03-20T16:17:55.815Z,37.19
2023-03-20T16:21:55.773Z,37.52
2023-03-20T16:25:55.832Z,37.33
2023-03-20T16:29:55.891Z,37.46
2023-03-20T16:33:55.990Z,37.64
2023-03-20T16:37:56.066Z,37.69
2023-03-20T16:41:56.349Z,37.67
2023-03-20T16:45:56.269Z,37.65
2023-03-20T16:49:57.337Z,37.64
2023-03-20T16:53:56.456Z,37.62
2023-03-20T16:57:56.517Z,37.63
2023-03-20T17:01:56.607Z,37.61
2023-03-20T17:05:56.841Z,37.56
2023-03-20T17:09:56.778Z,37.47
2023-03-20T17:13:56.857Z,37.36
2023-03-20T17:17:56.946Z,37.22
2023-03-20T17:21:57.045Z,37.21
2023-03-20T17:25:57.092Z,37.19
2023-03-20T17:29:57.240Z,37.16
2023-03-20T17:33:57.244Z,37.12
2023-03-20T17:37:57.331Z,37.08
2023-03-20T17:41:57.444Z,37.04
2023-03-20T17:45:57.573Z,37.10
2023-03-20T17:49:57.993Z,37.09
2023-03-20T17:53:57.673Z,37.08
2023-03-20T17:57:57.772Z,37.05
2023-03-20T18:01:58.413Z,37.01
2023-03-20T18:05:57.932Z,36.99
2023-03-20T18:09:58.099Z,36.94
2023-03-20T18:13:58.129Z,36.90
2023-03-20T18:17:58.244Z,36.84
2023-03-20T18:21:58.346Z,36.84
2023-03-20T18:25:58.456Z,36.86
2023-03-20T18:29:58.584Z,36.87
2023-03-20T18:33:58.676Z,36.86
2023-03-20T18:37:58.798Z,36.87
2023-03-20T18:41:58.888Z,36.93
2023-03-20T18:45:59.027Z,36.94
2023-03-20T18:49:59.076Z,36.99
2023-03-20T18:53:59.169Z,37.02
2023-03-20T18:57:59.279Z,36.98
2023-03-20T19:01:59.374Z,37.11
2023-03-20T19:05:59.456Z,37.16
2023-03-20T19:09:59.538Z,37.21
2023-03-20T19:13:59.615Z,37.22
2023-03-20T19:17:59.700Z,37.25
2023-03-20T19:21:59.803Z,37.25
2023-03-20T19:25:59.894Z,37.26
2023-03-20T19:29:59.995Z,37.29
2023-03-20T19:34:00.121Z,37.29
2023-03-20T19:38:00.198Z,37.25
2023-03-20T19:42:15.576Z,37.23
2023-03-20T19:46:01.303Z,37.22
2023-03-20T19:50:00.313Z,37.25
2023-03-20T19:54:00.298Z,37.27
2023-03-20T19:58:00.305Z,37.24
2023-03-20T20:02:00.470Z,37.25
2023-03-20T20:06:00.431Z,37.30
2023-03-20T20:10:00.630Z,37.25
2023-03-20T20:14:09.736Z,37.25
2023-03-20T20:18:01.695Z,37.29
2023-03-20T20:26:01.689Z,37.21
2023-03-20T20:30:01.062Z,37.19
2023-03-20T20:34:52.855Z,37.25
2023-03-20T20:42:01.833Z,37.21
2023-03-20T20:46:00.722Z,37.23
2023-03-20T20:50:00.641Z,37.25
2023-03-20T20:54:00.653Z,37.19
2023-03-20T20:58:00.670Z,37.18
2023-03-20T21:02:00.687Z,37.13
2023-03-20T21:06:00.725Z,37.10
2023-03-20T21:10:00.733Z,37.12
2023-03-20T21:14:00.763Z,37.07
2023-03-20T21:18:01.969Z,37.07
2023-03-20T21:22:00.939Z,37.08
2023-03-20T21:26:00.946Z,37.01
2023-03-20T21:30:01.109Z,37.02
2023-03-20T21:34:01.282Z,36.97
2023-03-20T21:38:47.631Z,36.99
2023-03-20T21:42:02.456Z,37.02
2023-03-20T21:46:52.506Z,36.95
2023-03-20T21:50:46.508Z,36.99
2023-03-20T21:58:53.777Z,36.92
2023-03-20T22:02:14.358Z,36.90
2023-03-20T22:06:50.700Z,36.88
2023-03-20T22:14:56.740Z,36.83
2023-03-20T22:18:50.881Z,36.83
2023-03-20T22:23:42.720Z,36.74
2023-03-20T22:31:00.372Z,36.83
2023-03-20T22:34:39.797Z,36.81
2023-03-20T22:38:59.164Z,36.77
2023-03-20T22:46:22.674Z,36.72
2023-03-20T22:50:02.806Z,36.70
2023-03-20T22:54:01.810Z,36.70
2023-03-20T22:58:06.875Z,36.70
2023-03-20T23:02:02.835Z,36.68
2023-03-20T23:06:01.910Z,36.65
2023-03-20T23:10:01.880Z,36.64
2023-03-20T23:14:03.776Z,36.60
2023-03-20T23:18:02.097Z,36.63
2023-03-20T23:22:02.041Z,36.63
2023-03-20T23:26:02.047Z,36.53
2023-03-20T23:30:02.054Z,36.53
2023-03-20T23:34:02.049Z,36.48
2023-03-20T23:38:02.092Z,36.51
2023-03-20T23:42:14.475Z,36.48
2023-03-20T23:46:03.122Z,36.50
2023-03-20T23:50:02.086Z,36.52
2023-03-20T23:54:02.332Z,36.48
2023-03-20T23:58:02.213Z,36.42
